createdAt,value
2018-12-25T00:01:31.274Z,10.10
2018-12-25T00:04:01.799Z,10.33
2018-12-25T00:06:32.280Z,12.07
2018-12-25T00:09:03.006Z,11.50
2018-12-25T00:11:33.660Z,12.00
2018-12-25T00:14:02.986Z,10.57
2018-12-25T00:16:34.030Z,7.37
2018-12-25T00:19:06.212Z,9.73
2018-12-25T00:21:36.800Z,10.80
2018-12-25T00:24:07.244Z,8.30
2018-12-25T00:26:37.786Z,11.80
2018-12-25T00:29:08.347Z,8.37
2018-12-25T00:31:38.937Z,9.43
2018-12-25T00:34:09.270Z,8.97
2018-12-25T00:36:40.012Z,7.03
2018-12-25T00:39:10.237Z,7.83
2018-12-25T00:41:40.795Z,7.53
2018-12-25T00:44:11.337Z,6.60
2018-12-25T00:46:41.921Z,7.67
2018-12-25T00:49:14.961Z,6.20
2018-12-25T00:51:44.926Z,8.33
2018-12-25T00:54:15.000Z,8.73
2018-12-25T00:56:45.238Z,7.73
2018-12-25T00:59:15.399Z,9.33
2018-12-25T01:01:45.576Z,7.93
2018-12-25T01:04:15.882Z,7.83
2018-12-25T01:06:46.168Z,8.00
2018-12-25T01:09:16.472Z,7.37
2018-12-25T01:11:47.135Z,7.33
2018-12-25T01:14:16.954Z,7.37
2018-12-25T01:16:47.953Z,6.83
2018-12-25T01:19:23.285Z,7.93
2018-12-25T01:21:50.976Z,8.67
2018-12-25T01:24:21.190Z,10.03
2018-12-25T01:26:51.709Z,7.83
2018-12-25T01:29:21.991Z,7.17
2018-12-25T01:31:52.558Z,7.30
2018-12-25T01:34:23.228Z,7.77
2018-12-25T01:36:53.745Z,9.63
2018-12-25T01:39:24.316Z,7.77
2018-12-25T01:41:54.807Z,8.27
2018-12-25T01:44:25.320Z,8.53
2018-12-25T01:46:55.605Z,7.70
2018-12-25T01:49:31.737Z,10.67
2018-12-25T01:51:58.177Z,8.97
2018-12-25T01:54:28.734Z,8.13
2018-12-25T01:56:58.579Z,10.73
2018-12-25T01:59:29.250Z,8.47
2018-12-25T02:01:59.924Z,9.30
2018-12-25T02:04:30.150Z,9.53
2018-12-25T02:07:00.762Z,11.00
2018-12-25T02:09:31.376Z,9.73
2018-12-25T02:12:01.944Z,10.47
2018-12-25T02:14:32.578Z,10.30
2018-12-25T02:17:03.126Z,8.33
2018-12-25T02:19:40.238Z,9.20
2018-12-25T02:22:05.603Z,6.53
2018-12-25T02:24:36.200Z,7.63
2018-12-25T02:27:06.470Z,8.00
2018-12-25T02:29:37.104Z,5.83
2018-12-25T02:32:07.287Z,9.07
2018-12-25T02:34:37.489Z,9.27
2018-12-25T02:37:08.081Z,11.20
2018-12-25T02:39:38.669Z,9.70
2018-12-25T02:42:09.327Z,9.57
2018-12-25T02:44:39.935Z,14.17
2018-12-25T02:47:10.292Z,9.23
2018-12-25T02:49:50.041Z,8.37
2018-12-25T02:52:12.483Z,10.17
2018-12-25T02:54:43.131Z,10.47
2018-12-25T02:57:13.735Z,9.47
2018-12-25T02:59:44.334Z,9.23
2018-12-25T03:02:15.023Z,10.30
2018-12-25T03:04:44.859Z,9.00
2018-12-25T03:07:15.429Z,9.80
2018-12-25T03:09:46.019Z,10.27
2018-12-25T03:12:16.602Z,10.73
2018-12-25T03:14:46.796Z,12.00
2018-12-25T03:17:17.101Z,10.63
2018-12-25T03:19:47.261Z,8.97
2018-12-25T03:22:17.793Z,10.57
2018-12-25T03:24:48.299Z,7.40
2018-12-25T03:27:18.475Z,7.80
2018-12-25T03:29:48.402Z,11.03
2018-12-25T03:32:19.159Z,5.90
2018-12-25T03:35:08.326Z,12.10
2018-12-25T03:37:38.872Z,10.77
2018-12-25T03:40:09.295Z,10.97
2018-12-25T03:42:39.753Z,12.47
2018-12-25T03:45:10.021Z,9.97
2018-12-25T03:47:40.695Z,10.87
2018-12-25T03:50:11.203Z,11.40
2018-12-25T03:52:41.900Z,9.80
2018-12-25T03:55:12.171Z,12.93
2018-12-25T03:57:42.629Z,11.93
2018-12-25T04:00:13.169Z,14.63
2018-12-25T04:02:43.659Z,11.93
2018-12-25T04:05:14.235Z,11.50
2018-12-25T04:07:44.837Z,9.47
2018-12-25T04:10:15.301Z,9.13
2018-12-25T04:12:45.444Z,12.03
2018-12-25T04:15:15.705Z,11.50
2018-12-25T04:17:45.525Z,9.83
2018-12-25T04:20:19.854Z,13.43
2018-12-25T04:22:48.245Z,11.67
2018-12-25T04:25:18.725Z,10.53
2018-12-25T04:27:49.236Z,13.60
2018-12-25T04:30:19.836Z,12.47
2018-12-25T04:32:49.737Z,12.13
2018-12-25T04:35:20.310Z,10.23
2018-12-25T04:37:50.899Z,11.27
2018-12-25T04:40:21.504Z,11.50
2018-12-25T04:42:52.029Z,12.93
2018-12-25T04:45:22.399Z,10.70
2018-12-25T04:47:52.227Z,10.73
2018-12-25T04:50:29.175Z,11.87
2018-12-25T04:52:54.719Z,9.10
2018-12-25T04:55:25.175Z,10.90
2018-12-25T04:57:55.639Z,12.83
2018-12-25T05:00:25.898Z,10.97
2018-12-25T05:02:56.427Z,11.33
2018-12-25T05:05:26.627Z,10.53
2018-12-25T05:07:56.599Z,9.83
2018-12-25T05:10:27.157Z,14.10
2018-12-25T05:12:57.737Z,12.07
2018-12-25T05:15:28.330Z,14.37
2018-12-25T05:17:58.186Z,12.23
2018-12-25T05:20:28.721Z,10.47
2018-12-25T05:22:59.257Z,13.93
2018-12-25T05:25:29.425Z,11.43
2018-12-25T05:27:59.602Z,11.33
2018-12-25T05:30:30.126Z,12.80
2018-12-25T05:33:00.661Z,10.23
2018-12-25T05:35:30.821Z,11.30
2018-12-25T05:38:00.921Z,12.67
2018-12-25T05:40:31.459Z,13.47
2018-12-25T05:43:01.671Z,14.30
2018-12-25T05:45:31.995Z,14.53
2018-12-25T05:48:02.482Z,14.27
2018-12-25T05:50:33.008Z,14.47
2018-12-25T05:53:03.706Z,13.10
2018-12-25T05:55:33.965Z,13.77
2018-12-25T05:58:04.408Z,17.13
2018-12-25T06:00:34.971Z,12.67
2018-12-25T06:03:05.205Z,12.57
2018-12-25T06:05:35.671Z,8.47
2018-12-25T06:08:05.751Z,11.87
2018-12-25T06:10:35.818Z,12.83
2018-12-25T06:13:06.307Z,11.50
2018-12-25T06:15:36.719Z,11.57
2018-12-25T06:18:07.243Z,10.73
2018-12-25T06:20:37.905Z,10.90
2018-12-25T06:23:08.403Z,12.40
2018-12-25T06:25:39.081Z,11.30
2018-12-25T06:28:09.536Z,13.17
2018-12-25T06:30:39.981Z,9.03
2018-12-25T06:33:09.853Z,13.17
2018-12-25T06:35:40.079Z,11.67
2018-12-25T06:38:10.663Z,12.40
2018-12-25T06:40:41.277Z,12.50
2018-12-25T06:43:11.871Z,13.67
2018-12-25T06:45:42.439Z,13.53
2018-12-25T06:48:13.001Z,12.60
2018-12-25T06:50:42.551Z,12.27
2018-12-25T06:53:13.017Z,12.00
2018-12-25T06:55:43.230Z,11.10
2018-12-25T06:58:32.218Z,10.70
2018-12-25T07:01:21.206Z,13.07
2018-12-25T07:03:51.411Z,11.33
2018-12-25T07:06:21.629Z,12.63
2018-12-25T07:08:52.294Z,11.63
2018-12-25T07:11:22.765Z,14.77
2018-12-25T07:13:53.288Z,15.97
2018-12-25T07:16:23.202Z,16.77
2018-12-25T07:18:53.458Z,14.27
2018-12-25T07:21:24.050Z,13.60
2018-12-25T07:23:54.766Z,13.07
2018-12-25T07:26:25.366Z,10.30
2018-12-25T07:28:56.023Z,13.80
2018-12-25T07:31:26.666Z,12.17
2018-12-25T07:33:57.232Z,12.33
2018-12-25T07:36:27.392Z,16.63
2018-12-25T07:38:57.960Z,11.90
2018-12-25T07:41:28.640Z,13.17
2018-12-25T07:43:59.180Z,10.03
2018-12-25T07:46:29.858Z,13.37
2018-12-25T07:49:00.459Z,12.40
2018-12-25T07:51:31.057Z,10.80
2018-12-25T07:54:01.566Z,12.10
2018-12-25T07:56:31.792Z,14.40
2018-12-25T07:59:02.362Z,15.80
2018-12-25T08:01:32.986Z,15.00
2018-12-25T08:04:03.596Z,14.70
2018-12-25T08:06:34.173Z,17.90
2018-12-25T08:09:04.316Z,19.47
2018-12-25T08:11:34.664Z,23.03
2018-12-25T08:14:04.859Z,20.07
2018-12-25T08:16:35.378Z,14.17
2018-12-25T08:19:05.344Z,17.50
2018-12-25T08:21:35.520Z,15.90
2018-12-25T08:24:06.687Z,13.13
2018-12-25T08:26:37.066Z,11.27
2018-12-25T08:29:07.618Z,11.40
2018-12-25T08:31:38.216Z,10.90
2018-12-25T08:34:08.423Z,10.50
2018-12-25T08:36:39.004Z,13.03
2018-12-25T08:39:10.824Z,12.10
2018-12-25T08:41:41.310Z,9.23
2018-12-25T08:44:11.477Z,9.60
2018-12-25T08:46:41.924Z,10.50
2018-12-25T08:49:11.813Z,10.30
2018-12-25T08:51:42.392Z,9.53
2018-12-25T08:54:13.060Z,9.20
2018-12-25T08:56:43.583Z,10.40
2018-12-25T08:59:14.101Z,9.00
2018-12-25T09:01:44.598Z,9.37
2018-12-25T09:04:15.092Z,8.77
2018-12-25T09:06:45.600Z,10.40
2018-12-25T09:09:16.177Z,8.77
2018-12-25T09:11:46.466Z,8.20
2018-12-25T09:14:17.089Z,10.63
2018-12-25T09:16:47.531Z,9.10
2018-12-25T09:19:18.072Z,10.13
2018-12-25T09:21:48.436Z,8.03
2018-12-25T09:24:18.258Z,10.80
2018-12-25T09:26:48.574Z,7.57
2018-12-25T09:29:19.116Z,8.00
2018-12-25T09:31:49.598Z,7.17
2018-12-25T09:34:19.856Z,9.60
2018-12-25T09:36:50.498Z,9.03
2018-12-25T09:39:21.043Z,8.37
2018-12-25T09:41:51.561Z,9.17
2018-12-25T09:44:21.746Z,10.37
2018-12-25T09:46:52.134Z,8.37
2018-12-25T09:49:22.602Z,7.93
2018-12-25T09:51:54.621Z,9.83
2018-12-25T09:54:25.222Z,9.47
2018-12-25T09:56:55.470Z,7.30
2018-12-25T09:59:27.024Z,10.30
2018-12-25T10:01:57.711Z,9.80
2018-12-25T10:04:28.487Z,10.57
2018-12-25T10:06:59.070Z,8.40
2018-12-25T10:09:30.711Z,8.20
2018-12-25T10:12:00.874Z,10.37
2018-12-25T10:14:30.976Z,9.87
2018-12-25T10:17:01.564Z,9.40
2018-12-25T10:19:32.150Z,11.27
2018-12-25T10:22:04.238Z,10.13
2018-12-25T10:24:35.098Z,11.17
2018-12-25T10:27:05.596Z,11.17
2018-12-25T10:29:36.195Z,9.50
2018-12-25T10:32:06.812Z,9.77
2018-12-25T10:34:37.278Z,8.30
2018-12-25T10:37:08.796Z,7.93
2018-12-25T10:39:39.431Z,8.13
2018-12-25T10:42:09.974Z,9.47
2018-12-25T10:44:39.996Z,8.23
2018-12-25T10:47:10.464Z,7.53
2018-12-25T10:49:41.056Z,8.23
2018-12-25T10:52:11.977Z,8.63
2018-12-25T10:54:42.252Z,9.23
2018-12-25T10:57:12.894Z,6.77
2018-12-25T10:59:43.164Z,7.80
2018-12-25T11:02:13.081Z,6.80
2018-12-25T11:04:43.782Z,8.07
2018-12-25T11:07:14.048Z,9.83
2018-12-25T11:09:44.276Z,6.73
2018-12-25T11:12:14.908Z,5.93
2018-12-25T11:14:45.500Z,7.87
2018-12-25T11:17:16.019Z,8.33
2018-12-25T11:19:46.604Z,6.17
2018-12-25T11:22:19.897Z,4.63
2018-12-25T11:24:49.589Z,6.63
2018-12-25T11:27:20.234Z,5.63
2018-12-25T11:29:54.361Z,5.03
2018-12-25T11:32:24.568Z,5.73
2018-12-25T11:34:54.846Z,4.97
2018-12-25T11:37:24.842Z,3.77
2018-12-25T11:39:55.050Z,3.23
2018-12-25T11:42:25.260Z,4.97
2018-12-25T11:44:55.688Z,2.57
2018-12-25T11:47:25.900Z,4.10
2018-12-25T11:49:56.156Z,4.03
2018-12-25T11:52:28.442Z,3.63
2018-12-25T11:54:59.130Z,3.17
2018-12-25T11:57:29.602Z,4.13
2018-12-25T11:59:59.773Z,2.60
2018-12-25T12:02:30.019Z,2.47
2018-12-25T12:05:00.528Z,4.13
2018-12-25T12:07:30.989Z,3.53
2018-12-25T12:10:01.492Z,2.63
2018-12-25T12:12:31.765Z,2.57
2018-12-25T12:15:02.237Z,2.93
2018-12-25T12:17:32.109Z,2.47
2018-12-25T12:20:02.586Z,2.60
2018-12-25T12:22:36.940Z,4.70
2018-12-25T12:25:05.512Z,4.70
2018-12-25T12:27:37.408Z,2.93
2018-12-25T12:30:09.574Z,3.70
2018-12-25T12:32:39.789Z,2.40
2018-12-25T12:35:10.406Z,4.70
2018-12-25T12:37:41.010Z,2.33
2018-12-25T12:40:11.684Z,3.50
2018-12-25T12:42:43.056Z,3.83
2018-12-25T12:45:13.587Z,2.77
2018-12-25T12:47:43.798Z,3.13
2018-12-25T12:50:14.317Z,13.73
2018-12-25T12:52:45.668Z,21.57
2018-12-25T12:55:16.232Z,10.00
2018-12-25T12:57:46.925Z,24.50
2018-12-25T13:00:17.549Z,14.53
2018-12-25T13:02:48.027Z,3.50
2018-12-25T13:05:18.148Z,3.37
2018-12-25T13:07:48.349Z,8.90
2018-12-25T13:10:18.194Z,3.90
2018-12-25T13:12:48.770Z,4.33
2018-12-25T13:15:19.244Z,3.50
2018-12-25T13:17:49.550Z,5.67
2018-12-25T13:20:19.604Z,6.53
2018-12-25T13:22:53.997Z,7.17
2018-12-25T13:25:22.499Z,5.63
2018-12-25T13:27:52.886Z,10.70
2018-12-25T13:30:23.542Z,4.20
2018-12-25T13:32:53.794Z,7.00
2018-12-25T13:35:24.051Z,7.87
2018-12-25T13:37:54.460Z,9.53
2018-12-25T13:40:24.778Z,3.63
2018-12-25T13:42:55.307Z,6.60
2018-12-25T13:45:25.563Z,6.10
2018-12-25T13:47:55.734Z,7.83
2018-12-25T13:50:25.981Z,8.50
2018-12-25T13:53:02.741Z,10.70
2018-12-25T13:55:28.990Z,6.13
2018-12-25T13:57:59.466Z,8.10
2018-12-25T14:00:31.982Z,6.20
2018-12-25T14:03:02.294Z,9.07
2018-12-25T14:05:32.802Z,7.73
2018-12-25T14:08:03.214Z,5.40
2018-12-25T14:10:33.515Z,6.10
2018-12-25T14:13:10.182Z,5.23
2018-12-25T14:15:40.399Z,4.67
2018-12-25T14:18:10.451Z,5.40
2018-12-25T14:20:41.611Z,23.40
2018-12-25T14:23:12.324Z,4.93
2018-12-25T14:25:42.646Z,4.67
2018-12-25T14:28:12.976Z,5.10
2018-12-25T14:30:43.292Z,4.20
2018-12-25T14:33:13.853Z,4.03
2018-12-25T14:35:43.737Z,4.47
2018-12-25T14:38:13.968Z,4.43
2018-12-25T14:40:48.674Z,5.97
2018-12-25T14:43:21.017Z,5.17
2018-12-25T14:45:52.009Z,3.50
2018-12-25T14:48:22.670Z,3.50
2018-12-25T14:50:53.378Z,2.40
2018-12-25T14:53:23.995Z,5.57
2018-12-25T14:55:54.822Z,4.10
2018-12-25T14:58:25.130Z,2.40
2018-12-25T15:00:55.917Z,3.30
2018-12-25T15:03:29.794Z,4.33
2018-12-25T15:06:00.158Z,6.80
2018-12-25T15:08:31.080Z,3.00
2018-12-25T15:11:02.102Z,4.47
2018-12-25T15:13:32.993Z,3.67
2018-12-25T15:16:03.402Z,4.07
2018-12-25T15:18:33.221Z,2.67
2018-12-25T15:21:03.182Z,3.40
2018-12-25T15:23:34.041Z,5.10
2018-12-25T15:26:07.728Z,5.03
2018-12-25T15:28:38.356Z,6.23
2018-12-25T15:31:08.884Z,4.60
2018-12-25T15:33:39.032Z,3.80
2018-12-25T15:36:09.383Z,4.83
2018-12-25T15:38:39.587Z,3.57
2018-12-25T15:41:10.104Z,4.53
2018-12-25T15:43:42.431Z,2.77
2018-12-25T15:46:12.608Z,4.93
2018-12-25T15:49:01.918Z,2.73
2018-12-25T15:51:32.091Z,3.10
2018-12-25T15:54:02.367Z,4.13
2018-12-25T15:56:32.801Z,4.47
2018-12-25T15:59:03.012Z,3.67
2018-12-25T16:01:33.512Z,4.60
2018-12-25T16:04:04.105Z,6.13
2018-12-25T16:06:34.571Z,5.90
2018-12-25T16:09:06.901Z,4.73
2018-12-25T16:11:37.127Z,5.00
2018-12-25T16:14:07.035Z,3.97
2018-12-25T16:16:37.509Z,4.37
2018-12-25T16:19:07.966Z,4.60
2018-12-25T16:21:38.236Z,5.37
2018-12-25T16:24:08.790Z,5.63
2018-12-25T16:26:39.389Z,5.73
2018-12-25T16:29:10.019Z,5.30
2018-12-25T16:31:40.517Z,3.20
2018-12-25T16:34:11.141Z,5.30
2018-12-25T16:36:41.429Z,7.83
2018-12-25T16:39:11.655Z,4.27
2018-12-25T16:41:42.135Z,6.30
2018-12-25T16:44:12.893Z,6.03
2018-12-25T16:46:43.512Z,4.80
2018-12-25T16:49:13.467Z,4.97
2018-12-25T16:51:44.095Z,7.03
2018-12-25T16:54:14.673Z,7.23
2018-12-25T16:56:44.624Z,5.10
2018-12-25T16:59:15.147Z,4.30
2018-12-25T17:01:45.711Z,6.70
2018-12-25T17:04:16.194Z,7.20
2018-12-25T17:06:46.721Z,5.23
2018-12-25T17:09:17.264Z,6.07
2018-12-25T17:11:47.539Z,6.70
2018-12-25T17:14:17.455Z,6.07
2018-12-25T17:16:48.057Z,7.87
2018-12-25T17:19:18.265Z,6.90
2018-12-25T17:21:48.932Z,7.00
2018-12-25T17:24:18.761Z,6.33
2018-12-25T17:26:49.393Z,7.47
2018-12-25T17:29:20.030Z,7.40
2018-12-25T17:31:50.522Z,6.60
2018-12-25T17:34:21.032Z,5.97
2018-12-25T17:36:51.618Z,6.47
2018-12-25T17:39:21.793Z,7.43
2018-12-25T17:41:52.271Z,10.07
2018-12-25T17:44:22.906Z,13.53
2018-12-25T17:46:53.454Z,8.17
2018-12-25T17:49:23.920Z,9.73
2018-12-25T17:51:54.187Z,7.67
2018-12-25T17:54:24.479Z,7.07
2018-12-25T17:56:55.013Z,6.37
2018-12-25T17:59:25.381Z,5.90
2018-12-25T18:01:55.969Z,5.40
2018-12-25T18:04:26.196Z,5.97
2018-12-25T18:06:56.771Z,5.77
2018-12-25T18:09:28.343Z,5.33
2018-12-25T18:11:59.168Z,5.60
2018-12-25T18:14:29.365Z,5.33
2018-12-25T18:16:59.619Z,7.00
2018-12-25T18:19:29.975Z,4.90
2018-12-25T18:22:00.179Z,6.00
2018-12-25T18:24:30.636Z,5.40
2018-12-25T18:27:01.137Z,6.33
2018-12-25T18:29:30.966Z,5.80
2018-12-25T18:32:01.192Z,7.60
2018-12-25T18:34:31.726Z,6.07
2018-12-25T18:37:02.382Z,7.40
2018-12-25T18:39:32.989Z,5.73
2018-12-25T18:42:06.315Z,7.80
2018-12-25T18:44:37.332Z,8.50
2018-12-25T18:47:07.812Z,6.83
2018-12-25T18:49:38.420Z,6.83
2018-12-25T18:52:09.022Z,9.20
2018-12-25T18:54:38.929Z,7.27
2018-12-25T18:57:09.626Z,6.93
2018-12-25T18:59:40.219Z,7.70
2018-12-25T19:02:10.947Z,6.40
2018-12-25T19:04:50.448Z,7.17
2018-12-25T19:07:23.208Z,6.23
2018-12-25T19:09:53.471Z,6.57
2018-12-25T19:12:24.050Z,6.13
2018-12-25T19:15:01.833Z,6.23
2018-12-25T19:17:32.274Z,5.77
2018-12-25T19:20:02.341Z,5.60
2018-12-25T19:22:33.005Z,4.30
2018-12-25T19:25:03.204Z,5.63
2018-12-25T19:27:33.723Z,5.03
2018-12-25T19:30:04.088Z,6.47
2018-12-25T19:32:43.783Z,5.73
2018-12-25T19:35:11.183Z,5.83
2018-12-25T19:37:41.662Z,3.87
2018-12-25T19:40:11.954Z,4.17
2018-12-25T19:42:42.235Z,11.67
2018-12-25T19:45:12.796Z,7.40
2018-12-25T19:47:43.488Z,5.27
2018-12-25T19:50:13.780Z,6.07
2018-12-25T19:52:44.516Z,4.10
2018-12-25T19:55:14.622Z,6.87
2018-12-25T19:57:45.195Z,5.17
2018-12-25T20:00:15.963Z,4.80
2018-12-25T20:02:50.553Z,6.37
2018-12-25T20:05:37.322Z,3.27
2018-12-25T20:08:55.523Z,3.90
2018-12-25T20:12:09.139Z,4.63
2018-12-25T20:15:01.822Z,4.67
2018-12-25T20:18:16.824Z,5.43
2018-12-25T20:21:25.665Z,4.73
2018-12-25T20:24:52.563Z,6.50
2018-12-25T20:28:02.526Z,6.23
2018-12-25T20:31:08.832Z,6.87
2018-12-25T20:34:08.636Z,8.93
2018-12-25T20:37:23.815Z,8.80
2018-12-25T20:40:40.736Z,7.30
2018-12-25T20:43:51.098Z,7.40
2018-12-25T20:47:07.788Z,5.97
2018-12-25T20:50:25.106Z,8.93
2018-12-25T20:53:35.862Z,8.80
2018-12-25T20:57:06.076Z,11.80
2018-12-25T21:00:25.810Z,10.27
2018-12-25T21:03:31.526Z,10.90
2018-12-25T21:06:40.773Z,11.53
2018-12-25T21:10:12.688Z,7.40
2018-12-25T21:13:12.667Z,6.80
2018-12-25T21:16:29.831Z,7.83
2018-12-25T21:19:52.094Z,8.90
2018-12-25T21:22:57.512Z,8.83
2018-12-25T21:26:03.131Z,9.47
2018-12-25T21:28:35.042Z,6.80
2018-12-25T21:31:05.776Z,8.10
2018-12-25T21:33:36.427Z,8.70
2018-12-25T21:36:07.262Z,8.27
2018-12-25T21:38:38.962Z,8.70
2018-12-25T21:41:10.828Z,7.33
2018-12-25T21:43:41.316Z,6.40
2018-12-25T21:46:11.547Z,9.37
2018-12-25T21:48:42.854Z,11.10
2018-12-25T21:51:13.511Z,8.70
2018-12-25T21:53:43.554Z,6.40
2018-12-25T21:56:14.224Z,7.57
2018-12-25T21:58:44.392Z,8.40
2018-12-25T22:01:15.046Z,10.37
2018-12-25T22:03:45.620Z,9.77
2018-12-25T22:06:16.103Z,10.97
2018-12-25T22:08:46.638Z,7.93
2018-12-25T22:11:16.993Z,13.67
2018-12-25T22:13:47.389Z,20.57
2018-12-25T22:16:17.866Z,22.13
2018-12-25T22:18:48.457Z,20.03
2018-12-25T22:21:18.730Z,20.87
2018-12-25T22:23:49.290Z,19.40
2018-12-25T22:26:19.750Z,14.30
2018-12-25T22:28:49.902Z,23.67
2018-12-25T22:31:20.188Z,22.10
2018-12-25T22:34:08.778Z,26.13
2018-12-25T22:36:39.110Z,28.20
2018-12-25T22:39:09.768Z,33.87
2018-12-25T22:41:39.962Z,31.57
2018-12-25T22:44:10.696Z,23.33
2018-12-25T22:46:41.239Z,26.83
2018-12-25T22:49:11.909Z,21.53
2018-12-25T22:51:42.628Z,31.27
2018-12-25T22:54:13.136Z,28.67
2018-12-25T22:56:43.610Z,35.07
2018-12-25T22:59:13.618Z,30.07
2018-12-25T23:01:43.978Z,23.93
2018-12-25T23:04:14.634Z,26.97
2018-12-25T23:06:45.242Z,23.03
2018-12-25T23:09:15.574Z,16.27
2018-12-25T23:11:46.083Z,22.67
2018-12-25T23:14:16.272Z,21.50
2018-12-25T23:16:46.745Z,10.57
2018-12-25T23:19:17.176Z,9.57
2018-12-25T23:21:47.818Z,15.43
2018-12-25T23:24:21.163Z,15.07
2018-12-25T23:26:51.064Z,19.60
2018-12-25T23:29:30.313Z,13.73
2018-12-25T23:32:00.783Z,11.07
2018-12-25T23:34:31.337Z,8.97
2018-12-25T23:37:01.899Z,7.13
2018-12-25T23:39:32.102Z,9.40
2018-12-25T23:42:02.313Z,6.80
2018-12-25T23:44:32.983Z,6.90
2018-12-25T23:47:03.508Z,5.93
2018-12-25T23:49:52.492Z,7.47
2018-12-25T23:52:22.938Z,5.00
2018-12-25T23:55:12.256Z,6.47
2018-12-25T23:57:42.918Z,8.57
